createdAt,value
2018-12-26T00:00:48.414Z,87.77
2018-12-26T00:03:52.281Z,87.97
2018-12-26T00:06:56.191Z,87.18
2018-12-26T00:10:00.049Z,86.81
2018-12-26T00:13:04.039Z,86.34
2018-12-26T00:16:07.958Z,86.19
2018-12-26T00:19:12.418Z,85.75
2018-12-26T00:22:18.248Z,85.57
2018-12-26T00:25:24.190Z,85.99
2018-12-26T00:28:31.055Z,86.79
2018-12-26T00:31:34.903Z,87.61
2018-12-26T00:34:38.820Z,88.30
2018-12-26T00:37:42.679Z,88.89
2018-12-26T00:40:46.518Z,89.37
2018-12-26T00:43:50.369Z,89.56
2018-12-26T00:46:54.213Z,89.77
2018-12-26T00:49:58.047Z,89.87
2018-12-26T00:53:01.924Z,89.96
2018-12-26T00:56:10.489Z,90.05
2018-12-26T00:59:11.310Z,90.09
2018-12-26T01:02:15.494Z,90.08
2018-12-26T01:05:19.422Z,90.11
2018-12-26T01:08:23.369Z,89.83
2018-12-26T01:11:27.208Z,90.00
2018-12-26T01:14:33.070Z,90.06
2018-12-26T01:17:36.714Z,90.00
2018-12-26T01:20:40.584Z,89.89
2018-12-26T01:23:46.615Z,90.03
2018-12-26T01:26:50.546Z,90.17
2018-12-26T01:29:54.387Z,89.79
2018-12-26T01:32:58.233Z,89.79
2018-12-26T01:36:02.098Z,90.08
2018-12-26T01:39:07.225Z,90.23
2018-12-26T01:42:11.082Z,90.50
2018-12-26T01:45:15.027Z,90.83
2018-12-26T01:48:18.899Z,91.20
2018-12-26T01:51:22.758Z,91.04
2018-12-26T01:54:26.620Z,91.35
2018-12-26T01:57:30.459Z,91.24
2018-12-26T02:00:34.384Z,91.23
2018-12-26T02:03:38.221Z,91.21
2018-12-26T02:06:42.156Z,91.29
2018-12-26T02:09:46.076Z,91.34
2018-12-26T02:12:50.529Z,91.39
2018-12-26T02:15:54.399Z,91.43
2018-12-26T02:18:58.258Z,91.60
2018-12-26T02:22:02.678Z,91.77
2018-12-26T02:25:07.001Z,91.89
2018-12-26T02:28:10.842Z,91.91
2018-12-26T02:31:14.762Z,92.10
2018-12-26T02:34:18.623Z,92.05
2018-12-26T02:37:22.476Z,91.82
2018-12-26T02:40:26.343Z,91.47
2018-12-26T02:43:30.188Z,90.86
2018-12-26T02:46:34.138Z,90.79
2018-12-26T02:49:38.072Z,90.79
2018-12-26T02:52:41.990Z,90.97
2018-12-26T02:55:46.053Z,90.99
2018-12-26T02:58:50.067Z,90.90
2018-12-26T03:01:53.978Z,91.12
2018-12-26T03:04:57.918Z,90.98
2018-12-26T03:08:01.762Z,90.88
2018-12-26T03:11:05.607Z,91.04
2018-12-26T03:14:09.563Z,90.83
2018-12-26T03:17:13.453Z,90.72
2018-12-26T03:20:17.325Z,90.88
2018-12-26T03:23:21.167Z,91.04
2018-12-26T03:26:25.007Z,91.00
2018-12-26T03:29:28.898Z,91.06
2018-12-26T03:32:32.814Z,90.89
2018-12-26T03:35:36.646Z,90.63
2018-12-26T03:38:40.579Z,90.66
2018-12-26T03:41:44.489Z,90.70
2018-12-26T03:44:51.712Z,90.61
2018-12-26T03:47:56.921Z,90.72
2018-12-26T03:51:00.831Z,91.01
2018-12-26T03:54:04.843Z,91.03
2018-12-26T03:57:09.069Z,91.61
2018-12-26T04:00:13.298Z,91.73
2018-12-26T04:03:17.329Z,92.02
2018-12-26T04:06:21.252Z,92.55
2018-12-26T04:09:25.598Z,92.85
2018-12-26T04:12:29.545Z,93.09
2018-12-26T04:15:35.265Z,93.11
2018-12-26T04:18:39.372Z,93.33
2018-12-26T04:21:43.453Z,93.42
2018-12-26T04:24:48.416Z,93.25
2018-12-26T04:27:52.290Z,93.16
2018-12-26T04:30:57.682Z,93.21
2018-12-26T04:34:01.653Z,93.02
2018-12-26T04:37:05.499Z,93.05
2018-12-26T04:40:09.409Z,93.00
2018-12-26T04:43:13.263Z,92.76
2018-12-26T04:46:17.126Z,92.94
2018-12-26T04:49:20.979Z,93.21
2018-12-26T04:52:24.819Z,93.47
2018-12-26T04:55:28.673Z,93.60
2018-12-26T04:58:32.521Z,93.63
2018-12-26T05:01:36.397Z,93.55
2018-12-26T05:04:40.561Z,93.65
2018-12-26T05:07:44.406Z,93.56
2018-12-26T05:10:48.381Z,93.46
2018-12-26T05:13:52.306Z,93.27
2018-12-26T05:16:56.255Z,93.04
2018-12-26T05:20:00.195Z,92.81
2018-12-26T05:23:04.198Z,92.74
2018-12-26T05:26:08.129Z,92.74
2018-12-26T05:29:11.993Z,92.65
2018-12-26T05:32:15.928Z,92.35
2018-12-26T05:35:19.917Z,92.43
2018-12-26T05:38:23.873Z,92.41
2018-12-26T05:41:27.715Z,92.60
2018-12-26T05:44:31.575Z,92.61
2018-12-26T05:47:35.440Z,92.60
2018-12-26T05:50:39.304Z,92.62
2018-12-26T05:53:43.168Z,92.61
2018-12-26T05:56:47.118Z,92.52
2018-12-26T05:59:50.970Z,92.52
2018-12-26T06:02:54.820Z,92.61
2018-12-26T06:05:58.897Z,92.88
2018-12-26T06:09:02.949Z,92.79
2018-12-26T06:12:06.781Z,92.86
2018-12-26T06:15:12.990Z,92.89
2018-12-26T06:18:16.856Z,93.20
2018-12-26T06:21:20.739Z,93.18
2018-12-26T06:24:24.982Z,93.25
2018-12-26T06:27:30.230Z,93.41
2018-12-26T06:30:34.100Z,93.48
2018-12-26T06:33:37.947Z,93.49
2018-12-26T06:36:41.802Z,93.76
2018-12-26T06:39:45.730Z,93.63
2018-12-26T06:42:49.593Z,93.90
2018-12-26T06:45:53.437Z,94.12
2018-12-26T06:48:57.315Z,94.31
2018-12-26T06:52:01.159Z,94.06
2018-12-26T06:55:05.173Z,93.97
2018-12-26T06:58:09.015Z,93.92
2018-12-26T07:01:12.857Z,93.73
2018-12-26T07:04:16.716Z,93.70
2018-12-26T07:07:20.563Z,93.80
2018-12-26T07:10:25.064Z,93.74
2018-12-26T07:13:28.912Z,93.71
2018-12-26T07:16:34.839Z,93.55
2018-12-26T07:19:38.691Z,93.53
2018-12-26T07:22:42.544Z,93.25
2018-12-26T07:25:46.385Z,93.12
2018-12-26T07:28:50.335Z,93.30
2018-12-26T07:31:54.189Z,93.23
2018-12-26T07:34:58.033Z,93.08
2018-12-26T07:38:01.950Z,93.13
2018-12-26T07:41:05.810Z,93.12
2018-12-26T07:44:09.650Z,93.25
2018-12-26T07:47:13.489Z,93.36
2018-12-26T07:50:17.347Z,93.56
2018-12-26T07:53:21.266Z,93.63
2018-12-26T07:56:25.099Z,93.92
2018-12-26T07:59:37.526Z,93.94
2018-12-26T08:02:37.081Z,94.21
2018-12-26T08:05:40.935Z,94.26
2018-12-26T08:08:44.827Z,94.42
2018-12-26T08:11:48.747Z,94.57
2018-12-26T08:14:52.712Z,94.59
2018-12-26T08:17:56.596Z,94.71
2018-12-26T08:21:00.451Z,95.00
2018-12-26T08:24:04.423Z,95.11
2018-12-26T08:27:08.255Z,94.98
2018-12-26T08:30:12.100Z,95.15
2018-12-26T08:33:17.652Z,95.15
2018-12-26T08:36:21.578Z,95.25
2018-12-26T08:39:25.561Z,95.29
2018-12-26T08:42:29.476Z,95.25
2018-12-26T08:45:33.322Z,95.32
2018-12-26T08:48:37.339Z,95.06
2018-12-26T08:51:43.298Z,95.35
2018-12-26T08:54:47.178Z,95.37
2018-12-26T08:57:51.038Z,95.53
2018-12-26T09:00:54.972Z,95.55
2018-12-26T09:03:58.828Z,95.61
2018-12-26T09:07:02.716Z,95.62
2018-12-26T09:10:07.490Z,95.66
2018-12-26T09:13:11.380Z,95.81
2018-12-26T09:16:17.258Z,96.07
2018-12-26T09:19:21.155Z,96.21
2018-12-26T09:22:25.022Z,96.28
2018-12-26T09:25:29.635Z,96.28
2018-12-26T09:28:33.467Z,96.44
2018-12-26T09:31:37.314Z,96.49
2018-12-26T09:34:41.161Z,96.75
2018-12-26T09:37:45.026Z,96.82
2018-12-26T09:40:48.975Z,96.89
2018-12-26T09:43:55.963Z,96.96
2018-12-26T09:46:59.912Z,96.87
2018-12-26T09:50:04.014Z,96.99
2018-12-26T09:53:07.875Z,96.99
2018-12-26T09:56:11.733Z,97.15
2018-12-26T09:59:15.652Z,97.18
2018-12-26T10:02:19.591Z,97.40
2018-12-26T10:05:26.985Z,97.54
2018-12-26T10:08:30.830Z,97.52
2018-12-26T10:11:34.843Z,97.52
2018-12-26T10:14:38.755Z,97.52
2018-12-26T10:17:42.595Z,97.54
2018-12-26T10:20:46.437Z,97.54
2018-12-26T10:23:50.281Z,97.38
2018-12-26T10:26:54.211Z,97.11
2018-12-26T10:29:58.154Z,97.07
2018-12-26T10:33:01.994Z,97.14
2018-12-26T10:36:05.854Z,97.20
2018-12-26T10:39:09.793Z,97.35
2018-12-26T10:42:13.708Z,97.50
2018-12-26T10:45:17.652Z,97.54
2018-12-26T10:48:23.075Z,97.59
2018-12-26T10:51:27.032Z,97.60
2018-12-26T10:54:30.969Z,97.43
2018-12-26T10:57:35.087Z,97.48
2018-12-26T11:00:39.061Z,97.54
2018-12-26T11:03:42.860Z,97.69
2018-12-26T11:06:46.702Z,97.82
2018-12-26T11:09:50.556Z,97.75
2018-12-26T11:12:54.439Z,97.79
2018-12-26T11:15:58.519Z,97.71
2018-12-26T11:19:03.223Z,97.75
2018-12-26T11:22:07.058Z,97.83
2018-12-26T11:25:11.213Z,97.86
2018-12-26T11:28:15.067Z,97.91
2018-12-26T11:31:19.072Z,97.80
2018-12-26T11:34:24.246Z,97.83
2018-12-26T11:37:28.134Z,97.76
2018-12-26T11:40:32.192Z,97.75
2018-12-26T11:43:36.034Z,97.62
2018-12-26T11:46:39.891Z,97.60
2018-12-26T11:49:43.824Z,97.55
2018-12-26T11:52:47.766Z,97.55
2018-12-26T11:55:51.721Z,97.50
2018-12-26T11:58:58.515Z,97.54
2018-12-26T12:02:02.452Z,97.53
2018-12-26T12:05:06.770Z,97.34
2018-12-26T12:08:10.618Z,97.59
2018-12-26T12:11:14.666Z,97.73
2018-12-26T12:14:18.607Z,97.80
2018-12-26T12:17:22.570Z,97.77
2018-12-26T12:20:26.565Z,97.75
2018-12-26T12:23:32.613Z,97.83
2018-12-26T12:26:36.466Z,97.88
2018-12-26T12:29:40.310Z,97.85
2018-12-26T12:32:44.277Z,97.98
2018-12-26T12:35:48.261Z,98.14
2018-12-26T12:38:54.829Z,98.29
2018-12-26T12:41:58.837Z,98.39
2018-12-26T12:45:02.801Z,98.45
2018-12-26T12:48:06.856Z,98.49
2018-12-26T12:51:10.740Z,98.64
2018-12-26T12:54:14.578Z,98.67
2018-12-26T12:57:18.547Z,98.67
2018-12-26T13:00:22.556Z,98.67
2018-12-26T13:03:26.574Z,98.64
2018-12-26T13:06:30.429Z,98.55
2018-12-26T13:09:34.312Z,98.51
2018-12-26T13:12:38.268Z,98.21
2018-12-26T13:15:42.235Z,98.03
2018-12-26T13:18:46.109Z,97.75
2018-12-26T13:21:52.339Z,97.53
2018-12-26T13:24:56.268Z,97.20
2018-12-26T13:28:01.715Z,96.77
2018-12-26T13:31:05.693Z,96.43
2018-12-26T13:34:09.654Z,96.25
2018-12-26T13:37:13.627Z,96.07
2018-12-26T13:40:17.559Z,95.72
2018-12-26T13:43:21.492Z,95.49
2018-12-26T13:46:33.773Z,95.32
2018-12-26T13:49:33.229Z,95.19
2018-12-26T13:52:37.132Z,95.12
2018-12-26T13:55:41.000Z,95.04
2018-12-26T13:58:44.948Z,94.75
2018-12-26T14:01:48.830Z,94.50
2018-12-26T14:04:56.075Z,94.34
2018-12-26T14:07:59.968Z,93.93
2018-12-26T14:11:03.851Z,93.63
2018-12-26T14:14:07.737Z,93.48
2018-12-26T14:17:11.623Z,93.18
2018-12-26T14:20:15.488Z,93.02
2018-12-26T14:23:19.349Z,92.73
2018-12-26T14:26:23.287Z,92.69
2018-12-26T14:29:29.006Z,92.68
2018-12-26T14:32:32.974Z,92.48
2018-12-26T14:35:38.914Z,92.40
2018-12-26T14:38:42.777Z,92.36
2018-12-26T14:41:46.638Z,92.18
2018-12-26T14:44:50.565Z,92.02
2018-12-26T14:47:54.790Z,91.88
2018-12-26T14:50:58.715Z,91.77
2018-12-26T14:54:06.205Z,91.63
2018-12-26T14:57:10.429Z,91.56
2018-12-26T15:00:19.827Z,91.48
2018-12-26T15:03:20.048Z,91.33
2018-12-26T15:06:24.079Z,91.10
2018-12-26T15:09:28.084Z,90.96
2018-12-26T15:12:31.971Z,91.05
2018-12-26T15:15:35.902Z,90.97
2018-12-26T15:18:39.905Z,90.97
2018-12-26T15:21:43.707Z,90.94
2018-12-26T15:24:47.644Z,91.08
2018-12-26T15:27:51.578Z,91.14
2018-12-26T15:30:55.452Z,91.06
2018-12-26T15:33:59.375Z,91.06
2018-12-26T15:37:03.220Z,91.19
2018-12-26T15:40:08.982Z,91.14
2018-12-26T15:43:12.854Z,91.08
2018-12-26T15:46:16.742Z,91.10
2018-12-26T15:49:20.671Z,91.05
2018-12-26T15:52:29.939Z,91.07
2018-12-26T15:55:37.458Z,91.17
2018-12-26T15:58:41.399Z,91.20
2018-12-26T16:01:45.327Z,91.28
2018-12-26T16:04:49.277Z,90.53
2018-12-26T16:07:55.642Z,91.02
2018-12-26T16:10:59.644Z,91.31
2018-12-26T16:14:03.654Z,91.34
2018-12-26T16:17:07.506Z,91.50
2018-12-26T16:20:11.730Z,91.43
2018-12-26T16:23:15.672Z,91.40
2018-12-26T16:26:19.545Z,91.42
2018-12-26T16:29:23.463Z,91.41
2018-12-26T16:32:27.851Z,91.40
2018-12-26T16:35:31.782Z,91.55
2018-12-26T16:38:35.791Z,91.33
2018-12-26T16:41:39.750Z,91.32
2018-12-26T16:44:43.689Z,91.22
2018-12-26T16:47:49.629Z,91.24
2018-12-26T16:50:53.383Z,91.15
2018-12-26T16:53:57.272Z,91.13
2018-12-26T16:57:01.147Z,90.87
2018-12-26T17:00:05.527Z,90.68
2018-12-26T17:03:11.877Z,90.39
2018-12-26T17:06:15.820Z,90.30
2018-12-26T17:09:19.734Z,90.54
2018-12-26T17:12:23.693Z,90.76
2018-12-26T17:15:27.622Z,91.03
2018-12-26T17:18:31.572Z,91.26
2018-12-26T17:21:35.600Z,91.74
2018-12-26T17:24:39.533Z,91.79
2018-12-26T17:27:43.405Z,91.87
2018-12-26T17:30:47.462Z,91.95
2018-12-26T17:33:51.318Z,92.07
2018-12-26T17:36:58.602Z,92.26
2018-12-26T17:40:02.607Z,92.37
2018-12-26T17:43:06.611Z,92.42
2018-12-26T17:46:10.570Z,92.60
2018-12-26T17:49:16.065Z,92.51
2018-12-26T17:52:22.173Z,92.48
2018-12-26T17:55:55.194Z,92.67
2018-12-26T17:59:39.447Z,92.75
2018-12-26T18:02:46.077Z,92.81
2018-12-26T18:05:50.544Z,92.88
2018-12-26T18:08:54.462Z,92.90
2018-12-26T18:12:11.239Z,93.04
2018-12-26T18:15:04.264Z,93.15
2018-12-26T18:18:08.227Z,93.29
2018-12-26T18:21:12.149Z,93.40
2018-12-26T18:24:16.140Z,93.42
2018-12-26T18:27:20.430Z,93.58
2018-12-26T18:30:24.456Z,93.58
2018-12-26T18:33:28.382Z,93.61
2018-12-26T18:36:32.306Z,93.73
2018-12-26T18:39:36.256Z,93.77
2018-12-26T18:42:40.178Z,93.95
2018-12-26T18:45:44.040Z,93.92
2018-12-26T18:48:47.970Z,94.00
2018-12-26T18:51:51.902Z,94.07
2018-12-26T18:54:55.889Z,94.01
2018-12-26T18:57:59.732Z,94.07
2018-12-26T19:01:03.745Z,94.03
2018-12-26T19:04:07.672Z,93.94
2018-12-26T19:07:11.604Z,93.78
2018-12-26T19:10:15.481Z,93.79
2018-12-26T19:13:19.332Z,93.90
2018-12-26T19:16:23.268Z,94.08
2018-12-26T19:19:29.622Z,94.31
2018-12-26T19:22:33.464Z,94.37
2018-12-26T19:25:37.357Z,94.38
2018-12-26T19:28:41.261Z,94.30
2018-12-26T19:31:45.465Z,94.73
2018-12-26T19:34:49.391Z,94.72
2018-12-26T19:37:53.379Z,94.80
2018-12-26T19:40:57.198Z,94.91
2018-12-26T19:44:01.060Z,95.02
2018-12-26T19:47:04.992Z,95.16
2018-12-26T19:50:09.641Z,95.31
2018-12-26T19:53:14.989Z,95.37
2018-12-26T19:56:19.582Z,95.54
2018-12-26T19:59:23.537Z,95.86
2018-12-26T20:02:27.492Z,96.14
2018-12-26T20:05:31.423Z,96.27
2018-12-26T20:08:35.279Z,96.33
2018-12-26T20:11:39.408Z,96.05
2018-12-26T20:14:43.278Z,96.32
2018-12-26T20:17:47.311Z,96.28
2018-12-26T20:20:52.887Z,96.34
2018-12-26T20:23:56.759Z,96.38
2018-12-26T20:27:00.600Z,96.44
2018-12-26T20:30:05.093Z,96.53
2018-12-26T20:33:09.593Z,96.69
2018-12-26T20:36:15.013Z,96.73
2018-12-26T20:39:18.901Z,96.76
2018-12-26T20:42:22.734Z,96.92
2018-12-26T20:45:26.611Z,96.99
2018-12-26T20:48:30.478Z,97.12
2018-12-26T20:51:34.377Z,97.09
2018-12-26T20:54:38.269Z,97.24
2018-12-26T20:57:42.140Z,97.26
2018-12-26T21:00:46.073Z,97.25
2018-12-26T21:03:49.960Z,97.27
2018-12-26T21:06:53.974Z,97.41
2018-12-26T21:09:57.873Z,97.46
2018-12-26T21:13:01.748Z,97.53
2018-12-26T21:16:05.766Z,97.47
2018-12-26T21:19:09.607Z,97.50
2018-12-26T21:22:18.856Z,97.51
2018-12-26T21:25:24.384Z,97.55
2018-12-26T21:28:28.252Z,97.47
2018-12-26T21:31:34.072Z,97.43
2018-12-26T21:34:37.682Z,97.46
2018-12-26T21:37:41.628Z,97.43
2018-12-26T21:40:45.580Z,97.44
2018-12-26T21:43:49.515Z,97.45
2018-12-26T21:46:53.510Z,97.44
2018-12-26T21:49:57.381Z,97.47
2018-12-26T21:53:01.624Z,97.51
2018-12-26T21:56:06.188Z,97.46
2018-12-26T21:59:12.143Z,97.46
2018-12-26T22:02:22.424Z,97.55
2018-12-26T22:05:21.320Z,97.57
2018-12-26T22:08:25.684Z,97.70
2018-12-26T22:11:29.657Z,97.74
2018-12-26T22:14:33.721Z,97.83
2018-12-26T22:17:37.737Z,97.87
2018-12-26T22:20:41.593Z,97.95
2018-12-26T22:23:45.686Z,97.90
2018-12-26T22:26:49.535Z,98.00
2018-12-26T22:29:53.377Z,97.89
2018-12-26T22:32:57.261Z,98.06
2018-12-26T22:36:01.495Z,98.14
2018-12-26T22:39:07.311Z,98.10
2018-12-26T22:42:11.339Z,98.13
2018-12-26T22:45:15.391Z,98.23
2018-12-26T22:48:19.251Z,98.26
2018-12-26T22:51:23.112Z,98.32
2018-12-26T22:54:27.115Z,98.26
2018-12-26T22:57:31.066Z,98.27
2018-12-26T23:00:41.026Z,98.31
2018-12-26T23:03:46.000Z,98.21
2018-12-26T23:06:51.915Z,98.17
2018-12-26T23:09:55.756Z,98.27
2018-12-26T23:12:59.622Z,98.35
2018-12-26T23:16:03.459Z,98.44
2018-12-26T23:19:09.834Z,98.50
2018-12-26T23:22:13.682Z,98.50
2018-12-26T23:25:17.624Z,98.58
2018-12-26T23:28:23.540Z,98.62
2018-12-26T23:31:27.419Z,98.66
2018-12-26T23:34:31.258Z,98.62
2018-12-26T23:37:35.122Z,98.68
2018-12-26T23:40:39.230Z,98.77
2018-12-26T23:43:43.203Z,98.71
2018-12-26T23:46:47.047Z,98.74
2018-12-26T23:49:50.936Z,98.77
2018-12-26T23:52:54.782Z,98.85
2018-12-26T23:55:58.653Z,98.87
2018-12-26T23:59:03.108Z,98.87
